Terminal Aerodrome Forecast
Issued by NWS

Home | Current Version | Previous Version | Text Only | Print | Product List | Glossary On
Versions: 1 2 3 4 5 6 7 8 9 10 11 12 13 14 15 16 17 18 19
131
FTUS41 KCLE 190142 AAA
TAFFDY
TAF AMD
KFDY 190142Z 1902/1924 32020G30KT 6SM -SHRA OVC015
     FM190500 31020G35KT P6SM OVC020
     FM190900 29015G30KT P6SM OVC025
     FM191200 27015G25KT P6SM OVC035
     FM192000 27012G20KT P6SM BKN050=

USA.gov is the U.S. government's official web portal to all federal, state and local government web resources and services.